Vel'Sk, Russia
Current Conditions -  °F | °C
As of 11:00 AM on Friday 31 Oct 2014 (Local Time) from ULWC Reporting Station
Overcast Overcast  
Wind Chill: 32°   Ceiling: 1800
Heat Index: 37°   Visibility: 6mi
Dew Point: 34°   Wind: 7mph
Humidity: 87%   Direction: 270°W
Pressure: 29.97"   Gusts: 13mph
Location:  61.08°N, 42.07°E
Report Text: ULWC 310800Z 27003G06MPS 9999 BKN018CB OVC/// 03/01 Q1015 NOSIGRMK QFE751/1001 SC060
Loading
Personal Weather Stations






























Interactive Weather Map
Tropical Storm Tracking
New forecast layout! Learn more

10-Day Weather Forecast

Advertisements
Track Severe Weather on mobile